sensor_id;sensor_type;location;lat;lon;timestamp;pressure;altitude;pressure_sealevel;temperature;humidity
5298;BME280;14738;42.668;23.250;2023-05-24T00:02:18;48384.34;;;-141.90;100.00
5298;BME280;14738;42.668;23.250;2023-05-24T00:04:44;48376.41;;;-141.90;100.00
5298;BME280;14738;42.668;23.250;2023-05-24T00:07:10;48372.44;;;-141.90;100.00
5298;BME280;14738;42.668;23.250;2023-05-24T00:09:35;48410.16;;;-141.90;100.00
5298;BME280;14738;42.668;23.250;2023-05-24T00:12:01;48390.31;;;-141.90;100.00
5298;BME280;14738;42.668;23.250;2023-05-24T00:14:26;48414.13;;;-141.90;100.00
5298;BME280;14738;42.668;23.250;2023-05-24T00:16:51;48398.25;;;-141.90;100.00
5298;BME280;14738;42.668;23.250;2023-05-24T00:19:17;48402.22;;;-141.90;100.00
5298;BME280;14738;42.668;23.250;2023-05-24T00:21:44;48406.19;;;-141.90;100.00
5298;BME280;14738;42.668;23.250;2023-05-24T00:24:10;48374.41;;;-141.90;100.00
5298;BME280;14738;42.668;23.250;2023-05-24T00:26:35;48390.31;;;-141.90;100.00
5298;BME280;14738;42.668;23.250;2023-05-24T00:29:01;48408.16;;;-141.90;100.00
5298;BME280;14738;42.668;23.250;2023-05-24T00:31:26;48398.25;;;-141.90;100.00
5298;BME280;14738;42.668;23.250;2023-05-24T00:33:51;48394.28;;;-141.90;100.00
5298;BME280;14738;42.668;23.250;2023-05-24T00:36:17;48376.41;;;-141.90;100.00
5298;BME280;14738;42.668;23.250;2023-05-24T00:38:42;48408.16;;;-141.90;100.00
5298;BME280;14738;42.668;23.250;2023-05-24T00:41:08;48422.06;;;-141.90;100.00
5298;BME280;14738;42.668;23.250;2023-05-24T00:43:33;48390.31;;;-141.90;100.00
5298;BME280;14738;42.668;23.250;2023-05-24T00:46:28;48396.25;;;-141.90;100.00
5298;BME280;14738;42.668;23.250;2023-05-24T00:48:54;48378.38;;;-141.90;100.00
5298;BME280;14738;42.668;23.250;2023-05-24T00:51:20;48410.16;;;-141.90;100.00
5298;BME280;14738;42.668;23.250;2023-05-24T00:53:47;48390.31;;;-141.90;100.00
5298;BME280;14738;42.668;23.250;2023-05-24T00:56:13;48416.09;;;-141.90;100.00
5298;BME280;14738;42.668;23.250;2023-05-24T00:58:39;48398.25;;;-141.90;100.00
5298;BME280;14738;42.668;23.250;2023-05-24T01:01:05;48396.25;;;-141.90;100.00
5298;BME280;14738;42.668;23.250;2023-05-24T01:03:31;48388.31;;;-141.90;100.00
5298;BME280;14738;42.668;23.250;2023-05-24T01:05:59;48360.53;;;-141.90;100.00
5298;BME280;14738;42.668;23.250;2023-05-24T01:16:27;48420.09;;;-141.90;100.00
5298;BME280;14738;42.668;23.250;2023-05-24T01:18:56;48422.06;;;-141.90;100.00
5298;BME280;14738;42.668;23.250;2023-05-24T01:24:13;48402.22;;;-141.90;100.00
5298;BME280;14738;42.668;23.250;2023-05-24T01:27:07;48441.91;;;-141.90;100.00
5298;BME280;14738;42.668;23.250;2023-05-24T01:29:34;48396.25;;;-141.90;100.00
5298;BME280;14738;42.668;23.250;2023-05-24T01:32:01;48414.13;;;-141.90;100.00
5298;BME280;14738;42.668;23.250;2023-05-24T01:34:26;48390.31;;;-141.90;100.00
5298;BME280;14738;42.668;23.250;2023-05-24T01:36:51;48398.25;;;-141.90;100.00
5298;BME280;14738;42.668;23.250;2023-05-24T01:39:17;48414.13;;;-141.90;100.00
5298;BME280;14738;42.668;23.250;2023-05-24T01:49:58;48398.25;;;-141.90;100.00
5298;BME280;14738;42.668;23.250;2023-05-24T01:52:28;48435.97;;;-141.90;100.00
5298;BME280;14738;42.668;23.250;2023-05-24T01:54:56;48400.22;;;-141.90;100.00
5298;BME280;14738;42.668;23.250;2023-05-24T01:57:23;48396.25;;;-141.90;100.00
5298;BME280;14738;42.668;23.250;2023-05-24T01:59:51;48426.03;;;-141.90;100.00
5298;BME280;14738;42.668;23.250;2023-05-24T02:02:18;48406.19;;;-141.90;100.00
5298;BME280;14738;42.668;23.250;2023-05-24T02:04:44;48414.13;;;-141.90;100.00
5298;BME280;14738;42.668;23.250;2023-05-24T02:07:09;48398.25;;;-141.90;100.00
5298;BME280;14738;42.668;23.250;2023-05-24T02:09:35;48394.28;;;-141.90;100.00
5298;BME280;14738;42.668;23.250;2023-05-24T02:12:00;48416.09;;;-141.90;100.00
5298;BME280;14738;42.668;23.250;2023-05-24T02:14:26;48422.06;;;-141.90;100.00
5298;BME280;14738;42.668;23.250;2023-05-24T02:16:52;48420.09;;;-141.90;100.00
5298;BME280;14738;42.668;23.250;2023-05-24T02:19:22;48374.41;;;-141.90;100.00
5298;BME280;14738;42.668;23.250;2023-05-24T02:21:48;48426.03;;;-141.90;100.00
5298;BME280;14738;42.668;23.250;2023-05-24T02:24:13;48410.16;;;-141.90;100.00
5298;BME280;14738;42.668;23.250;2023-05-24T02:26:39;48416.09;;;-141.90;100.00
5298;BME280;14738;42.668;23.250;2023-05-24T02:29:04;48418.09;;;-141.90;100.00
5298;BME280;14738;42.668;23.250;2023-05-24T02:31:30;48416.09;;;-141.90;100.00
5298;BME280;14738;42.668;23.250;2023-05-24T02:33:56;48410.16;;;-141.90;100.00
5298;BME280;14738;42.668;23.250;2023-05-24T02:36:22;48433.97;;;-141.90;100.00
5298;BME280;14738;42.668;23.250;2023-05-24T02:38:51;48418.09;;;-141.90;100.00
5298;BME280;14738;42.668;23.250;2023-05-24T02:41:17;48398.25;;;-141.90;100.00
5298;BME280;14738;42.668;23.250;2023-05-24T02:43:46;48386.34;;;-141.90;100.00
5298;BME280;14738;42.668;23.250;2023-05-24T02:46:13;48418.09;;;-141.90;100.00
5298;BME280;14738;42.668;23.250;2023-05-24T02:48:38;48402.22;;;-141.90;100.00
5298;BME280;14738;42.668;23.250;2023-05-24T02:51:06;48394.28;;;-141.90;100.00
5298;BME280;14738;42.668;23.250;2023-05-24T02:53:32;48414.13;;;-141.90;100.00
5298;BME280;14738;42.668;23.250;2023-05-24T02:55:58;48406.19;;;-141.90;100.00
5298;BME280;14738;42.668;23.250;2023-05-24T02:58:24;48418.09;;;-141.90;100.00
5298;BME280;14738;42.668;23.250;2023-05-24T03:00:53;48426.03;;;-141.90;100.00
5298;BME280;14738;42.668;23.250;2023-05-24T03:03:18;48406.19;;;-141.90;100.00
5298;BME280;14738;42.668;23.250;2023-05-24T03:05:44;48406.19;;;-141.90;100.00
5298;BME280;14738;42.668;23.250;2023-05-24T03:08:09;48406.19;;;-141.90;100.00
5298;BME280;14738;42.668;23.250;2023-05-24T03:10:34;48416.09;;;-141.90;100.00
5298;BME280;14738;42.668;23.250;2023-05-24T03:13:00;48408.16;;;-141.90;100.00
5298;BME280;14738;42.668;23.250;2023-05-24T03:15:25;48406.19;;;-141.90;100.00
5298;BME280;14738;42.668;23.250;2023-05-24T03:17:51;48410.16;;;-141.90;100.00
5298;BME280;14738;42.668;23.250;2023-05-24T03:20:16;48420.09;;;-141.90;100.00
5298;BME280;14738;42.668;23.250;2023-05-24T03:22:42;48422.06;;;-141.90;100.00
5298;BME280;14738;42.668;23.250;2023-05-24T03:25:08;48402.22;;;-141.90;100.00
5298;BME280;14738;42.668;23.250;2023-05-24T03:27:36;48418.09;;;-141.90;100.00
5298;BME280;14738;42.668;23.250;2023-05-24T03:30:02;48445.88;;;-141.90;100.00
5298;BME280;14738;42.668;23.250;2023-05-24T03:32:27;48432.00;;;-141.90;100.00
5298;BME280;14738;42.668;23.250;2023-05-24T03:34:53;48443.91;;;-141.90;100.00
5298;BME280;14738;42.668;23.250;2023-05-24T03:37:19;48433.97;;;-141.90;100.00
5298;BME280;14738;42.668;23.250;2023-05-24T03:39:44;48445.88;;;-141.90;100.00
5298;BME280;14738;42.668;23.250;2023-05-24T03:42:10;48445.88;;;-141.90;44.32
5298;BME280;14738;42.668;23.250;2023-05-24T03:44:38;48451.84;;;-141.90;44.73
5298;BME280;14738;42.668;23.250;2023-05-24T03:47:04;48503.47;;;-141.90;44.00
5298;BME280;14738;42.668;23.250;2023-05-24T03:49:30;48455.81;;;-141.90;42.61
5298;BME280;14738;42.668;23.250;2023-05-24T03:51:56;48445.88;;;-141.90;44.00
5298;BME280;14738;42.668;23.250;2023-05-24T03:54:21;48481.63;;;-141.90;44.54
5298;BME280;14738;42.668;23.250;2023-05-24T03:56:46;48477.66;;;-141.90;41.79
5298;BME280;14738;42.668;23.250;2023-05-24T03:59:12;48495.53;;;-141.90;41.74
5298;BME280;14738;42.668;23.250;2023-05-24T04:01:38;48489.56;;;-141.90;40.82
5298;BME280;14738;42.668;23.250;2023-05-24T04:04:03;48467.72;;;-141.90;39.22
5298;BME280;14738;42.668;23.250;2023-05-24T04:06:28;48535.22;;;-141.90;37.68
5298;BME280;14738;42.668;23.250;2023-05-24T04:08:55;48525.31;;;-141.90;36.95
5298;BME280;14738;42.668;23.250;2023-05-24T04:11:21;48572.94;;;-141.90;36.05
5298;BME280;14738;42.668;23.250;2023-05-24T04:13:48;48636.47;;;-141.90;34.63
5298;BME280;14738;42.668;23.250;2023-05-24T04:16:14;48582.88;;;-141.90;32.85
5298;BME280;14738;42.668;23.250;2023-05-24T04:18:40;48612.66;;;-141.90;33.22
5298;BME280;14738;42.668;23.250;2023-05-24T04:21:05;48584.84;;;-141.90;35.33
5298;BME280;14738;42.668;23.250;2023-05-24T04:23:31;48576.91;;;-141.90;34.16
5298;BME280;14738;42.668;23.250;2023-05-24T04:25:56;48604.72;;;-141.90;32.18
5298;BME280;14738;42.668;23.250;2023-05-24T04:28:22;48624.56;;;-141.90;30.96
5298;BME280;14738;42.668;23.250;2023-05-24T04:30:48;48658.31;;;-141.90;30.09
5298;BME280;14738;42.668;23.250;2023-05-24T04:33:13;48660.31;;;-141.90;30.74
5298;BME280;14738;42.668;23.250;2023-05-24T04:35:39;48648.38;;;-141.90;29.13
5298;BME280;14738;42.668;23.250;2023-05-24T04:38:06;48620.59;;;-141.90;29.23
5298;BME280;14738;42.668;23.250;2023-05-24T04:40:31;48662.28;;;-141.90;29.55
5298;BME280;14738;42.668;23.250;2023-05-24T04:42:57;48648.38;;;-141.90;29.20
5298;BME280;14738;42.668;23.250;2023-05-24T04:45:23;48688.09;;;-141.90;29.74
5298;BME280;14738;42.668;23.250;2023-05-24T04:47:49;48678.16;;;-141.90;28.43
5298;BME280;14738;42.668;23.250;2023-05-24T04:50:14;48648.38;;;-141.90;30.13
5298;BME280;14738;42.668;23.250;2023-05-24T04:52:40;48680.16;;;-141.90;28.41
5298;BME280;14738;42.668;23.250;2023-05-24T04:55:05;48664.28;;;-141.90;28.47
5298;BME280;14738;42.668;23.250;2023-05-24T04:57:31;48715.91;;;-141.90;29.14
5298;BME280;14738;42.668;23.250;2023-05-24T04:59:57;48606.69;;;-141.90;30.39
5298;BME280;14738;42.668;23.250;2023-05-24T05:02:22;48648.38;;;-141.90;30.41
5298;BME280;14738;42.668;23.250;2023-05-24T05:04:50;48644.41;;;-141.90;29.56
5298;BME280;14738;42.668;23.250;2023-05-24T05:07:16;48674.19;;;-141.90;28.71
5298;BME280;14738;42.668;23.250;2023-05-24T05:09:41;48759.56;;;-141.90;27.00
5298;BME280;14738;42.668;23.250;2023-05-24T05:12:07;48771.47;;;-141.90;26.14
5298;BME280;14738;42.668;23.250;2023-05-24T05:14:32;48815.16;;;-141.90;24.84
5298;BME280;14738;42.668;23.250;2023-05-24T05:16:58;48819.13;;;-141.90;24.09
5298;BME280;14738;42.668;23.250;2023-05-24T05:19:23;48827.06;;;-141.90;25.16
5298;BME280;14738;42.668;23.250;2023-05-24T05:21:48;48815.16;;;-141.90;25.03
5298;BME280;14738;42.668;23.250;2023-05-24T05:24:14;48868.78;;;-141.90;24.31
5298;BME280;14738;42.668;23.250;2023-05-24T05:26:40;48854.88;;;-141.90;24.67
5298;BME280;14738;42.668;23.250;2023-05-24T05:29:06;48920.41;;;-141.90;23.42
5298;BME280;14738;42.668;23.250;2023-05-24T05:31:32;48864.81;;;-141.90;23.50
5298;BME280;14738;42.668;23.250;2023-05-24T05:33:57;48844.94;;;-141.90;24.22
5298;BME280;14738;42.668;23.250;2023-05-24T05:36:22;48852.88;;;-141.90;23.60
5298;BME280;14738;42.668;23.250;2023-05-24T05:38:48;49005.78;;;-141.90;21.53
5298;BME280;14738;42.668;23.250;2023-05-24T05:41:13;48819.13;;;-141.90;23.82
5298;BME280;14738;42.668;23.250;2023-05-24T05:43:38;48767.50;;;-141.90;25.50
5298;BME280;14738;42.668;23.250;2023-05-24T05:46:04;48823.09;;;-141.90;25.47
5298;BME280;14738;42.668;23.250;2023-05-24T05:48:29;48799.28;;;-141.90;24.69
5298;BME280;14738;42.668;23.250;2023-05-24T05:50:55;48807.22;;;-141.90;24.47
5298;BME280;14738;42.668;23.250;2023-05-24T05:53:20;48817.16;;;-141.90;24.54
5298;BME280;14738;42.668;23.250;2023-05-24T05:55:45;48872.75;;;-141.90;23.79
5298;BME280;14738;42.668;23.250;2023-05-24T05:58:11;48884.66;;;-141.90;23.73
5298;BME280;14738;42.668;23.250;2023-05-24T06:00:37;48839.00;;;-141.90;23.55
5298;BME280;14738;42.668;23.250;2023-05-24T06:03:02;48795.31;;;-141.90;25.44
5298;BME280;14738;42.668;23.250;2023-05-24T06:05:28;48833.03;;;-141.90;24.70
5298;BME280;14738;42.668;23.250;2023-05-24T06:07:53;48884.66;;;-141.90;23.73
5298;BME280;14738;42.668;23.250;2023-05-24T06:10:18;48902.53;;;-141.90;23.55
5298;BME280;14738;42.668;23.250;2023-05-24T06:12:44;48950.19;;;-141.90;23.58
5298;BME280;14738;42.668;23.250;2023-05-24T06:15:09;48866.78;;;-141.90;23.78
5298;BME280;14738;42.668;23.250;2023-05-24T06:17:35;48850.91;;;-141.90;23.72
5298;BME280;14738;42.668;23.250;2023-05-24T06:20:02;48715.91;;;-141.90;25.45
5298;BME280;14738;42.668;23.250;2023-05-24T06:22:31;48775.47;;;-141.90;26.06
5298;BME280;14738;42.668;23.250;2023-05-24T06:24:56;48862.81;;;-141.90;23.91
5298;BME280;14738;42.668;23.250;2023-05-24T06:27:21;48862.81;;;-141.90;24.04
5298;BME280;14738;42.668;23.250;2023-05-24T06:29:47;48773.47;;;-141.90;25.01
5298;BME280;14738;42.668;23.250;2023-05-24T06:32:13;48791.34;;;-141.90;24.97
5298;BME280;14738;42.668;23.250;2023-05-24T06:34:38;48771.47;;;-141.90;24.37
5298;BME280;14738;42.668;23.250;2023-05-24T06:37:03;48751.63;;;-141.90;26.90
5298;BME280;14738;42.668;23.250;2023-05-24T06:39:29;48751.63;;;-141.90;25.20
5298;BME280;14738;42.668;23.250;2023-05-24T06:41:54;48872.75;;;-141.90;23.52
5298;BME280;14738;42.668;23.250;2023-05-24T06:44:20;48948.19;;;-141.90;22.10
5298;BME280;14738;42.668;23.250;2023-05-24T06:46:47;48904.50;;;-141.90;22.85
5298;BME280;14738;42.668;23.250;2023-05-24T06:49:12;48950.19;;;-141.90;22.11
5298;BME280;14738;42.668;23.250;2023-05-24T06:51:38;48993.84;;;-141.90;22.06
5298;BME280;14738;42.668;23.250;2023-05-24T06:54:03;48946.19;;;-141.90;23.47
5298;BME280;14738;42.668;23.250;2023-05-24T06:56:29;48942.22;;;-141.90;23.53
5298;BME280;14738;42.668;23.250;2023-05-24T06:58:55;48886.63;;;-141.90;23.10
5298;BME280;14738;42.668;23.250;2023-05-24T07:01:20;48906.50;;;-141.90;23.62
5298;BME280;14738;42.668;23.250;2023-05-24T07:03:46;48910.47;;;-141.90;23.58
5298;BME280;14738;42.668;23.250;2023-05-24T07:06:11;48862.81;;;-141.90;22.86
5298;BME280;14738;42.668;23.250;2023-05-24T07:08:39;48934.28;;;-141.90;22.92
5298;BME280;14738;42.668;23.250;2023-05-24T07:11:06;48898.56;;;-141.90;24.39
5298;BME280;14738;42.668;23.250;2023-05-24T07:13:32;48835.03;;;-141.90;23.89
5298;BME280;14738;42.668;23.250;2023-05-24T07:15:57;48803.25;;;-141.90;24.49
5298;BME280;14738;42.668;23.250;2023-05-24T07:18:23;48690.09;;;-141.90;25.60
5298;BME280;14738;42.668;23.250;2023-05-24T07:20:48;48686.13;;;-141.90;27.58
5298;BME280;14738;42.668;23.250;2023-05-24T07:23:13;48656.34;;;-141.90;26.75
5298;BME280;14738;42.668;23.250;2023-05-24T07:25:39;48672.22;;;-141.90;27.91
5298;BME280;14738;42.668;23.250;2023-05-24T07:28:04;48652.38;;;-141.90;27.80
5298;BME280;14738;42.668;23.250;2023-05-24T07:30:30;48652.38;;;-141.90;28.14
5298;BME280;14738;42.668;23.250;2023-05-24T07:32:55;48648.38;;;-141.90;27.61
5298;BME280;14738;42.668;23.250;2023-05-24T07:35:21;48608.69;;;-141.90;28.22
5298;BME280;14738;42.668;23.250;2023-05-24T07:37:48;48608.69;;;-141.90;28.62
5298;BME280;14738;42.668;23.250;2023-05-24T07:40:13;48602.72;;;-141.90;29.59
5298;BME280;14738;42.668;23.250;2023-05-24T07:42:39;48618.59;;;-141.90;29.41
5298;BME280;14738;42.668;23.250;2023-05-24T07:45:06;48648.38;;;-141.90;29.33
5298;BME280;14738;42.668;23.250;2023-05-24T07:47:33;48608.69;;;-141.90;30.42
5298;BME280;14738;42.668;23.250;2023-05-24T07:49:58;48656.34;;;-141.90;31.24
5298;BME280;14738;42.668;23.250;2023-05-24T07:52:24;48634.50;;;-141.90;29.67
5298;BME280;14738;42.668;23.250;2023-05-24T07:54:50;48624.56;;;-141.90;31.26
5298;BME280;14738;42.668;23.250;2023-05-24T07:57:17;48640.44;;;-141.90;30.01
5298;BME280;14738;42.668;23.250;2023-05-24T07:59:43;48624.56;;;-141.90;30.80
5298;BME280;14738;42.668;23.250;2023-05-24T08:02:08;48592.81;;;-141.90;30.74
5298;BME280;14738;42.668;23.250;2023-05-24T08:04:36;48608.69;;;-141.90;34.33
5298;BME280;14738;42.668;23.250;2023-05-24T08:07:01;48580.88;;;-141.90;31.58
5298;BME280;14738;42.668;23.250;2023-05-24T08:09:29;48580.88;;;-141.90;31.70
5298;BME280;14738;42.668;23.250;2023-05-24T08:11:57;48584.84;;;-141.90;30.20
5298;BME280;14738;42.668;23.250;2023-05-24T08:14:23;48616.63;;;-141.90;30.17
5298;BME280;14738;42.668;23.250;2023-05-24T08:16:48;48582.88;;;-141.90;29.94
5298;BME280;14738;42.668;23.250;2023-05-24T08:19:13;48568.97;;;-141.90;30.19
5298;BME280;14738;42.668;23.250;2023-05-24T08:21:39;48574.94;;;-141.90;31.10
5298;BME280;14738;42.668;23.250;2023-05-24T08:24:06;48563.03;;;-141.90;29.64
5298;BME280;14738;42.668;23.250;2023-05-24T08:26:34;48574.94;;;-141.90;29.46
5298;BME280;14738;42.668;23.250;2023-05-24T08:29:00;48602.72;;;-141.90;29.88
5298;BME280;14738;42.668;23.250;2023-05-24T08:31:25;48578.91;;;-141.90;30.01
5298;BME280;14738;42.668;23.250;2023-05-24T08:33:51;48588.84;;;-141.90;28.72
5298;BME280;14738;42.668;23.250;2023-05-24T08:36:17;48582.88;;;-141.90;27.57
5298;BME280;14738;42.668;23.250;2023-05-24T08:38:42;48588.84;;;-141.90;26.13
5298;BME280;14738;42.668;23.250;2023-05-24T08:41:09;48553.09;;;-141.90;27.56
5298;BME280;14738;42.668;23.250;2023-05-24T08:43:37;48584.84;;;-141.90;25.91
5298;BME280;14738;42.668;23.250;2023-05-24T08:46:03;48576.91;;;-141.90;24.31
5298;BME280;14738;42.668;23.250;2023-05-24T08:48:30;48588.84;;;-141.90;27.61
5298;BME280;14738;42.668;23.250;2023-05-24T08:50:57;48565.00;;;-141.90;25.79
5298;BME280;14738;42.668;23.250;2023-05-24T08:53:23;48616.63;;;-141.90;24.94
5298;BME280;14738;42.668;23.250;2023-05-24T08:55:49;48572.94;;;-141.90;26.23
5298;BME280;14738;42.668;23.250;2023-05-24T08:58:18;48574.94;;;-141.90;26.74
5298;BME280;14738;42.668;23.250;2023-05-24T09:00:44;48576.91;;;-141.90;27.25
5298;BME280;14738;42.668;23.250;2023-05-24T09:03:10;48565.00;;;-141.90;25.84
5298;BME280;14738;42.668;23.250;2023-05-24T09:05:36;48570.97;;;-141.90;26.31
5298;BME280;14738;42.668;23.250;2023-05-24T09:08:02;48563.03;;;-141.90;26.36
5298;BME280;14738;42.668;23.250;2023-05-24T09:10:32;48576.91;;;-141.90;26.59
5298;BME280;14738;42.668;23.250;2023-05-24T09:13:00;48580.88;;;-141.90;24.54
5298;BME280;14738;42.668;23.250;2023-05-24T09:15:26;48574.94;;;-141.90;25.53
5298;BME280;14738;42.668;23.250;2023-05-24T09:17:52;48584.84;;;-141.90;26.02
5298;BME280;14738;42.668;23.250;2023-05-24T09:20:19;48586.84;;;-141.90;25.38
5298;BME280;14738;42.668;23.250;2023-05-24T09:22:49;48608.69;;;-141.90;25.37
5298;BME280;14738;42.668;23.250;2023-05-24T09:25:16;48610.66;;;-141.90;24.88
5298;BME280;14738;42.668;23.250;2023-05-24T09:27:49;48640.44;;;-141.90;25.33
5298;BME280;14738;42.668;23.250;2023-05-24T09:30:14;48588.84;;;-141.90;25.86
5298;BME280;14738;42.668;23.250;2023-05-24T09:32:40;48610.66;;;-141.90;25.05
5298;BME280;14738;42.668;23.250;2023-05-24T09:35:08;48602.72;;;-141.90;25.19
5298;BME280;14738;42.668;23.250;2023-05-24T09:37:35;48612.66;;;-141.90;25.21
5298;BME280;14738;42.668;23.250;2023-05-24T09:40:03;48616.63;;;-141.90;23.87
5298;BME280;14738;42.668;23.250;2023-05-24T09:42:31;48600.75;;;-141.90;23.91
5298;BME280;14738;42.668;23.250;2023-05-24T09:45:04;48616.63;;;-141.90;23.75
5298;BME280;14738;42.668;23.250;2023-05-24T09:47:33;48610.66;;;-141.90;22.92
5298;BME280;14738;42.668;23.250;2023-05-24T09:50:00;48628.53;;;-141.90;23.25
5298;BME280;14738;42.668;23.250;2023-05-24T09:52:26;48596.78;;;-141.90;23.50
5298;BME280;14738;42.668;23.250;2023-05-24T09:54:52;48620.59;;;-141.90;23.20
5298;BME280;14738;42.668;23.250;2023-05-24T09:57:18;48596.78;;;-141.90;22.97
5298;BME280;14738;42.668;23.250;2023-05-24T09:59:46;48590.81;;;-141.90;23.13
5298;BME280;14738;42.668;23.250;2023-05-24T10:02:12;48620.59;;;-141.90;22.61
5298;BME280;14738;42.668;23.250;2023-05-24T10:04:38;48618.59;;;-141.90;22.90
5298;BME280;14738;42.668;23.250;2023-05-24T10:07:06;48616.63;;;-141.90;22.37
5298;BME280;14738;42.668;23.250;2023-05-24T10:09:32;48580.88;;;-141.90;22.78
5298;BME280;14738;42.668;23.250;2023-05-24T10:12:02;48596.78;;;-141.90;23.55
5298;BME280;14738;42.668;23.250;2023-05-24T10:14:37;48620.59;;;-141.90;23.46
5298;BME280;14738;42.668;23.250;2023-05-24T10:17:06;48608.69;;;-141.90;23.73
5298;BME280;14738;42.668;23.250;2023-05-24T10:19:36;48620.59;;;-141.90;23.25
5298;BME280;14738;42.668;23.250;2023-05-24T10:22:06;48610.66;;;-141.90;22.72
5298;BME280;14738;42.668;23.250;2023-05-24T10:24:41;48622.59;;;-141.90;23.84
5298;BME280;14738;42.668;23.250;2023-05-24T10:27:12;48670.22;;;-141.90;22.24
5298;BME280;14738;42.668;23.250;2023-05-24T10:32:12;48660.31;;;-141.90;22.11
5298;BME280;14738;42.668;23.250;2023-05-24T10:34:40;48648.38;;;-141.90;22.19
5298;BME280;14738;42.668;23.250;2023-05-24T10:37:07;48642.44;;;-141.90;21.43
5298;BME280;14738;42.668;23.250;2023-05-24T10:39:33;48652.38;;;-141.90;21.59
5298;BME280;14738;42.668;23.250;2023-05-24T10:42:05;48628.53;;;-141.90;23.15
5298;BME280;14738;42.668;23.250;2023-05-24T10:44:31;48578.91;;;-141.90;22.66
5298;BME280;14738;42.668;23.250;2023-05-24T10:47:07;48642.44;;;-141.90;22.28
5298;BME280;14738;42.668;23.250;2023-05-24T10:49:34;48644.41;;;-141.90;22.90
5298;BME280;14738;42.668;23.250;2023-05-24T10:52:09;48630.53;;;-141.90;22.52
5298;BME280;14738;42.668;23.250;2023-05-24T10:54:36;48636.47;;;-141.90;22.37
5298;BME280;14738;42.668;23.250;2023-05-24T10:57:03;48608.69;;;-141.90;22.14
5298;BME280;14738;42.668;23.250;2023-05-24T10:59:33;48642.44;;;-141.90;22.25
5298;BME280;14738;42.668;23.250;2023-05-24T11:02:02;48636.47;;;-141.90;22.50
5298;BME280;14738;42.668;23.250;2023-05-24T11:04:32;48642.44;;;-141.90;21.91
5298;BME280;14738;42.668;23.250;2023-05-24T11:07:03;48648.38;;;-141.90;22.55
5298;BME280;14738;42.668;23.250;2023-05-24T11:09:29;48612.66;;;-141.90;22.01
5298;BME280;14738;42.668;23.250;2023-05-24T11:12:05;48610.66;;;-141.90;22.69
5298;BME280;14738;42.668;23.250;2023-05-24T11:14:36;48626.56;;;-141.90;22.46
5298;BME280;14738;42.668;23.250;2023-05-24T11:17:04;48640.44;;;-141.90;21.60
5298;BME280;14738;42.668;23.250;2023-05-24T11:19:31;48642.44;;;-141.90;22.09
5298;BME280;14738;42.668;23.250;2023-05-24T11:22:01;48612.66;;;-141.90;22.00
5298;BME280;14738;42.668;23.250;2023-05-24T11:24:27;48676.19;;;-141.90;22.47
5298;BME280;14738;42.668;23.250;2023-05-24T11:26:53;48654.34;;;-141.90;21.83
5298;BME280;14738;42.668;23.250;2023-05-24T11:29:19;48632.50;;;-141.90;21.89
5298;BME280;14738;42.668;23.250;2023-05-24T11:31:58;48630.53;;;-141.90;22.85
5298;BME280;14738;42.668;23.250;2023-05-24T11:34:30;48612.66;;;-141.90;22.11
5298;BME280;14738;42.668;23.250;2023-05-24T11:36:57;48622.59;;;-141.90;22.14
5298;BME280;14738;42.668;23.250;2023-05-24T11:39:23;48628.53;;;-141.90;22.70
5298;BME280;14738;42.668;23.250;2023-05-24T11:41:49;48588.84;;;-141.90;22.12
5298;BME280;14738;42.668;23.250;2023-05-24T11:44:17;48656.34;;;-141.90;22.21
5298;BME280;14738;42.668;23.250;2023-05-24T11:46:46;48612.66;;;-141.90;22.95
5298;BME280;14738;42.668;23.250;2023-05-24T11:49:15;48620.59;;;-141.90;21.55
5298;BME280;14738;42.668;23.250;2023-05-24T11:51:42;48680.16;;;-141.90;21.86
5298;BME280;14738;42.668;23.250;2023-05-24T11:54:07;48622.59;;;-141.90;23.13
5298;BME280;14738;42.668;23.250;2023-05-24T11:56:33;48640.44;;;-141.90;22.49
5298;BME280;14738;42.668;23.250;2023-05-24T12:01:30;48662.28;;;-141.90;21.50
5298;BME280;14738;42.668;23.250;2023-05-24T12:03:55;48666.25;;;-141.90;21.54
5298;BME280;14738;42.668;23.250;2023-05-24T12:06:21;48648.38;;;-141.90;21.33
5298;BME280;14738;42.668;23.250;2023-05-24T12:08:47;48614.63;;;-141.90;20.44
5298;BME280;14738;42.668;23.250;2023-05-24T12:11:14;48664.28;;;-141.90;20.92
5298;BME280;14738;42.668;23.250;2023-05-24T12:13:40;48620.59;;;-141.90;21.33
5298;BME280;14738;42.668;23.250;2023-05-24T12:16:05;48630.53;;;-141.90;21.49
5298;BME280;14738;42.668;23.250;2023-05-24T12:18:32;48640.44;;;-141.90;21.82
5298;BME280;14738;42.668;23.250;2023-05-24T12:20:57;48634.50;;;-141.90;22.28
5298;BME280;14738;42.668;23.250;2023-05-24T12:23:24;48622.59;;;-141.90;22.18
5298;BME280;14738;42.668;23.250;2023-05-24T12:25:59;48654.34;;;-141.90;21.29
5298;BME280;14738;42.668;23.250;2023-05-24T12:28:25;48690.09;;;-141.90;21.81
5298;BME280;14738;42.668;23.250;2023-05-24T12:30:51;48652.38;;;-141.90;22.15
5298;BME280;14738;42.668;23.250;2023-05-24T12:33:18;48630.53;;;-141.90;21.02
5298;BME280;14738;42.668;23.250;2023-05-24T12:35:44;48662.28;;;-141.90;20.95
5298;BME280;14738;42.668;23.250;2023-05-24T12:38:10;48610.66;;;-141.90;21.57
5298;BME280;14738;42.668;23.250;2023-05-24T12:40:36;48640.44;;;-141.90;21.47
5298;BME280;14738;42.668;23.250;2023-05-24T12:43:03;48612.66;;;-141.90;20.81
5298;BME280;14738;42.668;23.250;2023-05-24T12:45:29;48640.44;;;-141.90;21.15
5298;BME280;14738;42.668;23.250;2023-05-24T12:47:56;48676.19;;;-141.90;20.90
5298;BME280;14738;42.668;23.250;2023-05-24T12:50:23;48616.63;;;-141.90;19.99
5298;BME280;14738;42.668;23.250;2023-05-24T12:52:49;48624.56;;;-141.90;21.49
5298;BME280;14738;42.668;23.250;2023-05-24T12:55:27;48656.34;;;-141.90;21.21
5298;BME280;14738;42.668;23.250;2023-05-24T12:57:53;48658.31;;;-141.90;20.29
5298;BME280;14738;42.668;23.250;2023-05-24T13:00:20;48682.13;;;-141.90;20.74